createdAt,value
2023-03-10T00:00:43.832Z,4.13
2023-03-10T00:01:43.796Z,4.21
2023-03-10T00:02:43.785Z,4.18
2023-03-10T00:03:43.792Z,4.07
2023-03-10T00:04:43.852Z,4.13
2023-03-10T00:05:43.798Z,4.18
2023-03-10T00:06:43.781Z,4.21
2023-03-10T00:07:43.734Z,4.11
2023-03-10T00:08:43.734Z,4.26
2023-03-10T00:09:43.711Z,4.28
2023-03-10T00:10:43.706Z,4.31
2023-03-10T00:11:43.688Z,4.18
2023-03-10T00:12:43.706Z,4.21
2023-03-10T00:13:43.692Z,4.28
2023-03-10T00:14:43.705Z,4.24
2023-03-10T00:15:43.701Z,4.31
2023-03-10T00:16:43.633Z,4.17
2023-03-10T00:17:43.632Z,4.20
2023-03-10T00:18:43.606Z,4.21
2023-03-10T00:19:43.658Z,4.24
2023-03-10T00:20:43.600Z,4.24
2023-03-10T00:21:43.579Z,4.17
2023-03-10T00:22:43.593Z,4.16
2023-03-10T00:23:43.561Z,4.13
2023-03-10T00:24:43.568Z,4.28
2023-03-10T00:25:43.561Z,4.25
2023-03-10T00:26:43.568Z,4.26
2023-03-10T00:27:43.515Z,4.28
2023-03-10T00:28:43.505Z,4.18
2023-03-10T00:29:43.497Z,4.25
2023-03-10T00:30:43.596Z,4.31
2023-03-10T00:31:43.470Z,4.24
2023-03-10T00:32:43.497Z,4.36
2023-03-10T00:33:43.461Z,4.18
2023-03-10T00:34:43.441Z,4.11
2023-03-10T00:35:43.486Z,4.14
2023-03-10T00:36:43.523Z,4.24
2023-03-10T00:37:43.424Z,4.13
2023-03-10T00:38:43.397Z,4.35
2023-03-10T00:39:43.386Z,4.29
2023-03-10T00:40:43.374Z,4.36
2023-03-10T00:41:43.361Z,4.34
2023-03-10T00:42:43.404Z,4.35
2023-03-10T00:43:43.342Z,4.28
2023-03-10T00:44:43.332Z,4.18
2023-03-10T00:45:43.318Z,4.17
2023-03-10T00:46:43.337Z,4.36
2023-03-10T00:47:43.310Z,4.32
2023-03-10T00:48:43.314Z,4.46
2023-03-10T00:49:43.288Z,4.54
2023-03-10T00:50:43.266Z,4.42
2023-03-10T00:51:43.302Z,4.34
2023-03-10T00:52:43.247Z,4.32
2023-03-10T00:53:43.247Z,4.56
2023-03-10T00:54:43.249Z,4.44
2023-03-10T00:55:43.212Z,4.56
2023-03-10T00:56:43.206Z,4.39
2023-03-10T00:57:43.210Z,4.43
2023-03-10T00:58:43.179Z,4.21
2023-03-10T00:59:50.488Z,4.21
2023-03-10T01:00:44.187Z,4.21
2023-03-10T01:01:43.222Z,4.29
2023-03-10T01:02:43.145Z,4.28
2023-03-10T01:03:43.147Z,4.14
2023-03-10T01:04:43.212Z,4.16
2023-03-10T01:05:43.100Z,4.25
2023-03-10T01:06:43.125Z,4.11
2023-03-10T01:07:43.103Z,3.98
2023-03-10T01:08:43.085Z,3.89
2023-03-10T01:09:43.056Z,3.89
2023-03-10T01:10:43.051Z,3.71
2023-03-10T01:11:43.052Z,3.95
2023-03-10T01:12:43.103Z,3.99
2023-03-10T01:13:43.010Z,4.06
2023-03-10T01:14:43.004Z,4.11
2023-03-10T01:15:43.010Z,4.04
2023-03-10T01:16:42.980Z,3.90
2023-03-10T01:17:42.985Z,3.82
2023-03-10T01:18:42.991Z,3.77
2023-03-10T01:19:42.948Z,3.88
2023-03-10T01:20:42.937Z,3.99
2023-03-10T01:21:42.925Z,3.86
2023-03-10T01:22:42.929Z,3.95
2023-03-10T01:23:42.934Z,3.99
2023-03-10T01:24:42.932Z,3.81
2023-03-10T01:25:42.903Z,3.74
2023-03-10T01:26:42.883Z,3.80
2023-03-10T01:27:42.859Z,3.80
2023-03-10T01:28:42.852Z,3.75
2023-03-10T01:29:42.853Z,3.90
2023-03-10T01:30:42.839Z,3.74
2023-03-10T01:31:42.940Z,3.74
2023-03-10T01:32:42.907Z,3.56
2023-03-10T01:33:42.884Z,3.49
2023-03-10T01:34:42.802Z,3.49
2023-03-10T01:35:42.823Z,3.49
2023-03-10T01:36:42.762Z,3.59
2023-03-10T01:37:44.475Z,3.56
2023-03-10T01:38:42.738Z,3.49
2023-03-10T01:39:42.746Z,3.49
2023-03-10T01:40:42.720Z,3.49
2023-03-10T01:41:42.713Z,3.56
2023-03-10T01:42:42.696Z,3.52
2023-03-10T01:43:42.726Z,3.52
2023-03-10T01:44:42.700Z,3.50
2023-03-10T01:45:42.664Z,3.33
2023-03-10T01:46:42.806Z,3.33
2023-03-10T01:47:42.644Z,3.46
2023-03-10T01:48:42.638Z,3.49
2023-03-10T01:49:42.674Z,3.49
2023-03-10T01:50:42.606Z,3.53
2023-03-10T01:51:42.605Z,3.64
2023-03-10T01:52:42.585Z,3.77
2023-03-10T01:53:42.585Z,3.74
2023-03-10T01:54:42.577Z,3.88
2023-03-10T01:55:42.578Z,3.77
2023-03-10T01:56:42.544Z,3.82
2023-03-10T01:57:42.526Z,3.89
2023-03-10T01:58:42.535Z,3.74
2023-03-10T01:59:42.505Z,3.67
2023-03-10T02:00:42.511Z,3.78
2023-03-10T02:01:42.576Z,3.88
2023-03-10T02:02:42.474Z,3.77
2023-03-10T02:03:42.461Z,3.74
2023-03-10T02:04:42.475Z,3.75
2023-03-10T02:05:42.438Z,3.89
2023-03-10T02:06:42.450Z,4.00
2023-03-10T02:07:42.451Z,3.98
2023-03-10T02:08:44.361Z,4.02
2023-03-10T02:09:42.412Z,3.98
2023-03-10T02:10:42.392Z,4.02
2023-03-10T02:11:42.406Z,4.08
2023-03-10T02:12:42.370Z,4.07
2023-03-10T02:13:42.379Z,4.20
2023-03-10T02:14:42.348Z,4.28
2023-03-10T02:15:42.350Z,4.14
2023-03-10T02:16:42.430Z,4.16
2023-03-10T02:17:42.358Z,4.20
2023-03-10T02:18:42.324Z,4.17
2023-03-10T02:19:42.314Z,4.14
2023-03-10T02:20:42.281Z,4.25
2023-03-10T02:21:42.278Z,4.25
2023-03-10T02:22:42.272Z,4.28
2023-03-10T02:23:51.356Z,4.34
2023-03-10T02:24:43.237Z,4.24
2023-03-10T02:25:42.251Z,4.18
2023-03-10T02:26:42.257Z,4.13
2023-03-10T02:27:42.429Z,4.26
2023-03-10T02:28:42.200Z,4.18
2023-03-10T02:29:58.132Z,4.31
2023-03-10T02:30:43.178Z,4.36
2023-03-10T02:31:42.262Z,4.43
2023-03-10T02:32:42.266Z,4.51
2023-03-10T02:33:42.139Z,4.47
2023-03-10T02:34:42.142Z,4.26
2023-03-10T02:35:42.157Z,4.17
2023-03-10T02:36:42.112Z,4.31
2023-03-10T02:37:42.172Z,4.17
2023-03-10T02:38:42.144Z,4.18
2023-03-10T02:39:42.121Z,4.29
2023-03-10T02:40:42.102Z,4.39
2023-03-10T02:41:45.295Z,4.46
2023-03-10T02:42:42.052Z,4.31
2023-03-10T02:43:42.077Z,4.32
2023-03-10T02:44:42.028Z,4.38
2023-03-10T02:45:42.176Z,4.34
2023-03-10T02:46:42.040Z,4.18
2023-03-10T02:47:41.983Z,4.32
2023-03-10T02:48:41.976Z,4.39
2023-03-10T02:49:41.995Z,4.49
2023-03-10T02:50:41.961Z,4.56
2023-03-10T02:51:41.948Z,4.65
2023-03-10T02:52:41.929Z,4.46
2023-03-10T02:53:41.917Z,4.51
2023-03-10T02:54:41.946Z,4.46
2023-03-10T02:55:41.943Z,4.36
2023-03-10T02:56:41.895Z,4.26
2023-03-10T02:57:41.872Z,4.28
2023-03-10T02:58:41.865Z,4.20
2023-03-10T02:59:41.875Z,4.24
2023-03-10T03:00:41.922Z,4.25
2023-03-10T03:01:41.882Z,4.16
2023-03-10T03:02:41.825Z,4.28
2023-03-10T03:03:41.853Z,4.28
2023-03-10T03:04:41.798Z,4.07
2023-03-10T03:05:41.797Z,4.11
2023-03-10T03:06:41.780Z,4.11
2023-03-10T03:07:41.801Z,4.21
2023-03-10T03:08:41.752Z,4.25
2023-03-10T03:09:41.738Z,4.11
2023-03-10T03:10:41.737Z,4.17
2023-03-10T03:11:41.734Z,4.16
2023-03-10T03:12:41.708Z,4.07
2023-03-10T03:13:41.736Z,4.26
2023-03-10T03:14:41.736Z,4.34
2023-03-10T03:15:41.707Z,4.31
2023-03-10T03:16:41.751Z,4.17
2023-03-10T03:17:41.654Z,4.32
2023-03-10T03:18:41.652Z,4.26
2023-03-10T03:19:41.677Z,4.35
2023-03-10T03:20:41.638Z,4.44
2023-03-10T03:21:41.613Z,4.44
2023-03-10T03:22:41.601Z,4.49
2023-03-10T03:23:41.586Z,4.53
2023-03-10T03:24:41.594Z,4.53
2023-03-10T03:25:41.607Z,4.39
2023-03-10T03:26:41.560Z,4.43
2023-03-10T03:27:41.545Z,4.56
2023-03-10T03:28:41.532Z,4.53
2023-03-10T03:29:41.525Z,4.61
2023-03-10T03:30:41.525Z,4.53
2023-03-10T03:31:41.555Z,4.59
2023-03-10T03:32:41.608Z,4.57
2023-03-10T03:33:41.477Z,4.62
2023-03-10T03:34:41.476Z,4.68
2023-03-10T03:35:41.478Z,4.69
2023-03-10T03:36:41.464Z,4.87
2023-03-10T03:37:41.456Z,4.68
2023-03-10T03:38:41.426Z,4.64
2023-03-10T03:39:41.441Z,4.64
2023-03-10T03:40:41.401Z,4.53
2023-03-10T03:41:41.414Z,4.67
2023-03-10T03:42:41.380Z,4.68
2023-03-10T03:43:41.387Z,4.62
2023-03-10T03:44:41.358Z,4.67
2023-03-10T03:45:41.397Z,4.61
2023-03-10T03:46:41.354Z,4.57
2023-03-10T03:47:41.355Z,4.51
2023-03-10T03:48:41.314Z,4.62
2023-03-10T03:49:41.321Z,4.47
2023-03-10T03:50:41.293Z,4.46
2023-03-10T03:51:41.288Z,4.57
2023-03-10T03:52:41.281Z,4.57
2023-03-10T03:53:41.261Z,4.59
2023-03-10T03:54:41.249Z,4.51
2023-03-10T03:55:41.254Z,4.62
2023-03-10T03:56:41.242Z,4.62
2023-03-10T03:57:41.214Z,4.71
2023-03-10T03:58:41.216Z,4.71
2023-03-10T03:59:41.196Z,4.64
2023-03-10T04:00:41.194Z,4.69
2023-03-10T04:01:41.195Z,4.80
2023-03-10T04:02:41.261Z,4.84
2023-03-10T04:03:41.241Z,4.86
2023-03-10T04:04:41.142Z,4.93
2023-03-10T04:05:41.137Z,4.90
2023-03-10T04:06:41.125Z,5.01
2023-03-10T04:07:41.124Z,4.91
2023-03-10T04:08:41.101Z,5.08
2023-03-10T04:09:41.092Z,5.09
2023-03-10T04:10:41.088Z,5.17
2023-03-10T04:11:41.081Z,5.19
2023-03-10T04:12:41.056Z,4.99
2023-03-10T04:13:41.060Z,5.01
2023-03-10T04:14:41.037Z,5.09
2023-03-10T04:15:41.061Z,5.08
2023-03-10T04:16:41.027Z,5.02
2023-03-10T04:17:41.016Z,5.02
2023-03-10T04:18:40.988Z,5.08
2023-03-10T04:19:41.021Z,5.12
2023-03-10T04:20:40.968Z,5.15
2023-03-10T04:21:40.960Z,5.19
2023-03-10T04:22:40.968Z,5.19
2023-03-10T04:23:40.950Z,5.08
2023-03-10T04:24:40.952Z,5.08
2023-03-10T04:25:40.970Z,5.05
2023-03-10T04:26:40.904Z,5.05
2023-03-10T04:27:40.908Z,4.97
2023-03-10T04:28:40.896Z,5.06
2023-03-10T04:29:40.872Z,5.05
2023-03-10T04:30:40.858Z,4.94
2023-03-10T04:31:40.972Z,5.04
2023-03-10T04:32:40.964Z,4.90
2023-03-10T04:33:40.832Z,4.97
2023-03-10T04:34:40.815Z,4.96
2023-03-10T04:35:40.990Z,5.04
2023-03-10T04:36:40.793Z,4.97
2023-03-10T04:37:40.822Z,5.02
2023-03-10T04:38:40.778Z,5.08
2023-03-10T04:39:40.775Z,5.01
2023-03-10T04:40:40.753Z,5.06
2023-03-10T04:41:40.761Z,5.11
2023-03-10T04:42:40.740Z,5.08
2023-03-10T04:43:42.928Z,4.99
2023-03-10T04:44:40.708Z,5.06
2023-03-10T04:45:40.702Z,5.02
2023-03-10T04:46:40.767Z,5.05
2023-03-10T04:47:40.696Z,4.99
2023-03-10T04:48:40.664Z,4.97
2023-03-10T04:49:40.666Z,5.12
2023-03-10T04:50:40.643Z,4.94
2023-03-10T04:51:40.655Z,4.93
2023-03-10T04:52:40.628Z,4.96
2023-03-10T04:53:40.624Z,4.93
2023-03-10T04:54:40.604Z,4.94
2023-03-10T04:55:40.617Z,4.93
2023-03-10T04:56:40.588Z,5.01
2023-03-10T04:57:40.572Z,4.90
2023-03-10T04:58:40.556Z,4.96
2023-03-10T04:59:40.547Z,4.96
2023-03-10T05:00:53.080Z,5.06
2023-03-10T05:01:41.639Z,5.02
2023-03-10T05:02:40.540Z,4.94
2023-03-10T05:03:40.503Z,4.97
2023-03-10T05:04:40.568Z,4.90
2023-03-10T05:05:40.480Z,5.01
2023-03-10T05:06:40.483Z,5.02
2023-03-10T05:07:40.601Z,5.02
2023-03-10T05:08:40.448Z,4.88
2023-03-10T05:09:40.433Z,4.94
2023-03-10T05:10:40.420Z,4.80
2023-03-10T05:11:40.414Z,4.83
2023-03-10T05:12:40.411Z,4.74
2023-03-10T05:13:40.417Z,4.83
2023-03-10T05:14:40.433Z,4.80
2023-03-10T05:15:40.708Z,4.79
2023-03-10T05:16:40.366Z,4.83
2023-03-10T05:17:40.367Z,4.74
2023-03-10T05:18:40.334Z,4.69
2023-03-10T05:19:40.365Z,4.75
2023-03-10T05:20:40.309Z,4.71
2023-03-10T05:21:40.321Z,4.72
2023-03-10T05:22:40.323Z,4.68
2023-03-10T05:23:40.306Z,4.77
2023-03-10T05:24:40.280Z,4.62
2023-03-10T05:25:40.289Z,4.56
2023-03-10T05:26:40.267Z,4.67
2023-03-10T05:27:40.239Z,4.54
2023-03-10T05:28:40.245Z,4.61
2023-03-10T05:29:40.217Z,4.54
2023-03-10T05:30:40.208Z,4.71
2023-03-10T05:31:40.310Z,4.57
2023-03-10T05:32:40.313Z,4.61
2023-03-10T05:33:40.173Z,4.56
2023-03-10T05:34:40.157Z,4.56
2023-03-10T05:35:40.233Z,4.57
2023-03-10T05:36:40.137Z,4.54
2023-03-10T05:37:40.154Z,4.53
2023-03-10T05:38:40.124Z,4.47
2023-03-10T05:39:40.126Z,4.54
2023-03-10T05:40:40.098Z,4.51
2023-03-10T05:41:40.092Z,4.47
2023-03-10T05:42:40.074Z,4.51
2023-03-10T05:43:40.104Z,4.50
2023-03-10T05:44:40.062Z,4.49
2023-03-10T05:45:40.043Z,4.64
2023-03-10T05:46:40.113Z,4.53
2023-03-10T05:47:40.026Z,4.53
2023-03-10T05:48:40.036Z,4.59
2023-03-10T05:49:40.037Z,4.64
2023-03-10T05:50:39.986Z,4.54
2023-03-10T05:51:39.982Z,4.54
2023-03-10T05:52:39.973Z,4.62
2023-03-10T05:53:39.974Z,4.49
2023-03-10T05:54:39.946Z,4.47
2023-03-10T05:55:40.049Z,4.49
2023-03-10T05:56:39.923Z,4.53
2023-03-10T05:57:39.956Z,4.42
2023-03-10T05:58:39.906Z,4.46
2023-03-10T05:59:39.902Z,4.49
2023-03-10T06:00:39.876Z,4.44
2023-03-10T06:01:39.869Z,4.44
2023-03-10T06:02:39.927Z,4.43
2023-03-10T06:03:40.024Z,4.49
2023-03-10T06:04:39.842Z,4.44
2023-03-10T06:05:39.827Z,4.47
2023-03-10T06:06:39.819Z,4.47
2023-03-10T06:07:39.804Z,4.32
2023-03-10T06:08:39.826Z,4.25
2023-03-10T06:09:39.802Z,4.25
2023-03-10T06:10:39.778Z,4.28
2023-03-10T06:11:39.783Z,4.14
2023-03-10T06:12:39.756Z,4.20
2023-03-10T06:13:39.747Z,4.16
2023-03-10T06:14:39.746Z,4.14
2023-03-10T06:15:39.734Z,4.14
2023-03-10T06:16:39.772Z,4.16
2023-03-10T06:17:39.700Z,4.04
2023-03-10T06:18:39.693Z,4.02
2023-03-10T06:19:39.684Z,3.92
2023-03-10T06:20:39.694Z,3.88
2023-03-10T06:21:39.663Z,3.90
2023-03-10T06:22:39.638Z,3.84
2023-03-10T06:23:39.641Z,3.80
2023-03-10T06:24:39.617Z,3.89
2023-03-10T06:25:39.606Z,3.81
2023-03-10T06:26:39.625Z,3.74
2023-03-10T06:27:39.621Z,3.81
2023-03-10T06:28:39.575Z,3.88
2023-03-10T06:29:39.569Z,3.88
2023-03-10T06:30:39.559Z,3.88
2023-03-10T06:31:39.630Z,3.88
2023-03-10T06:32:39.586Z,3.78
2023-03-10T06:33:39.539Z,3.82
2023-03-10T06:34:39.508Z,3.77
2023-03-10T06:35:39.520Z,3.80
2023-03-10T06:36:39.488Z,3.67
2023-03-10T06:37:39.510Z,3.72
2023-03-10T06:38:39.495Z,3.71
2023-03-10T06:39:39.465Z,3.75
2023-03-10T06:40:39.461Z,3.71
2023-03-10T06:41:39.440Z,3.78
2023-03-10T06:42:39.423Z,3.81
2023-03-10T06:43:39.487Z,3.72
2023-03-10T06:44:39.444Z,3.89
2023-03-10T06:45:39.405Z,3.74
2023-03-10T06:46:39.384Z,3.77
2023-03-10T06:47:39.372Z,3.84
2023-03-10T06:48:39.362Z,3.92
2023-03-10T06:49:39.354Z,3.90
2023-03-10T06:50:39.408Z,3.84
2023-03-10T06:51:39.329Z,3.84
2023-03-10T06:52:39.356Z,3.88
2023-03-10T06:53:39.309Z,3.95
2023-03-10T06:54:39.295Z,3.96
2023-03-10T06:55:39.289Z,3.98
2023-03-10T06:56:39.282Z,4.00
2023-03-10T06:57:39.302Z,4.07
2023-03-10T06:58:39.253Z,4.06
2023-03-10T06:59:39.263Z,4.11
2023-03-10T07:00:39.235Z,4.02
2023-03-10T07:01:39.298Z,4.13
2023-03-10T07:02:39.204Z,4.16
2023-03-10T07:03:39.234Z,4.24
2023-03-10T07:04:39.234Z,4.25
2023-03-10T07:05:39.174Z,4.29
2023-03-10T07:06:39.161Z,4.31
2023-03-10T07:07:39.171Z,4.24
2023-03-10T07:08:39.136Z,4.20
2023-03-10T07:09:39.157Z,4.38
2023-03-10T07:10:39.128Z,4.57
2023-03-10T07:11:39.107Z,4.77
2023-03-10T07:12:39.101Z,4.83
2023-03-10T07:13:39.083Z,4.94
2023-03-10T07:14:39.067Z,4.86
2023-03-10T07:15:39.991Z,4.94
2023-03-10T07:16:39.131Z,4.96
2023-03-10T07:17:39.040Z,4.86
2023-03-10T07:18:39.025Z,4.79
2023-03-10T07:19:39.016Z,4.65
2023-03-10T07:20:39.008Z,4.51
2023-03-10T07:21:39.017Z,4.32
2023-03-10T07:22:39.000Z,4.28
2023-03-10T07:23:38.971Z,4.18
2023-03-10T07:24:38.962Z,4.18
2023-03-10T07:25:38.951Z,4.20
2023-03-10T07:26:38.940Z,4.34
2023-03-10T07:27:38.972Z,4.38
2023-03-10T07:28:38.932Z,4.38
2023-03-10T07:29:38.916Z,4.47
2023-03-10T07:30:39.022Z,4.51
2023-03-10T07:31:38.905Z,4.62
2023-03-10T07:32:39.001Z,4.94
2023-03-10T07:33:38.912Z,4.96
2023-03-10T07:34:38.851Z,5.14
2023-03-10T07:35:38.902Z,5.23
2023-03-10T07:36:38.834Z,5.30
2023-03-10T07:37:38.840Z,5.40
2023-03-10T07:38:38.832Z,5.41
2023-03-10T07:39:38.830Z,5.41
2023-03-10T07:40:38.787Z,5.45
2023-03-10T07:41:38.790Z,5.38
2023-03-10T07:42:38.765Z,5.45
2023-03-10T07:43:38.777Z,6.08
2023-03-10T07:44:38.751Z,6.46
2023-03-10T07:45:38.757Z,6.19
2023-03-10T07:46:38.777Z,5.67
2023-03-10T07:47:38.734Z,5.59
2023-03-10T07:48:38.729Z,5.59
2023-03-10T07:49:38.702Z,5.30
2023-03-10T07:50:38.681Z,5.11
2023-03-10T07:51:38.686Z,4.93
2023-03-10T07:52:38.672Z,5.09
2023-03-10T07:53:38.660Z,4.97
2023-03-10T07:54:38.643Z,5.04
2023-03-10T07:55:38.631Z,5.02
2023-03-10T07:56:38.614Z,5.12
2023-03-10T07:57:38.627Z,5.14
2023-03-10T07:58:38.591Z,5.30
2023-03-10T07:59:38.931Z,5.41
2023-03-10T08:00:38.742Z,5.49
2023-03-10T08:01:39.036Z,5.67
2023-03-10T08:02:38.563Z,5.63
2023-03-10T08:03:38.664Z,5.74
2023-03-10T08:04:38.783Z,5.83
2023-03-10T08:05:38.868Z,5.81
2023-03-10T08:06:38.518Z,6.01
2023-03-10T08:07:39.074Z,6.06
2023-03-10T08:08:38.501Z,5.96
2023-03-10T08:09:39.004Z,6.03
2023-03-10T08:10:39.089Z,6.06
2023-03-10T08:11:38.448Z,5.95
2023-03-10T08:12:38.449Z,5.92
2023-03-10T08:13:39.088Z,5.93
2023-03-10T08:14:38.418Z,5.84
2023-03-10T08:15:38.760Z,5.84
2023-03-10T08:16:38.414Z,5.96
2023-03-10T08:17:38.383Z,5.80
2023-03-10T08:18:38.376Z,5.80
2023-03-10T08:19:39.067Z,5.78
2023-03-10T08:20:38.355Z,5.73
2023-03-10T08:21:38.863Z,5.73
2023-03-10T08:22:38.907Z,5.80
2023-03-10T08:23:38.318Z,5.75
2023-03-10T08:24:38.319Z,5.65
2023-03-10T08:25:38.316Z,5.83
2023-03-10T08:26:38.285Z,5.85
2023-03-10T08:27:38.308Z,5.96
2023-03-10T08:28:38.892Z,5.98
2023-03-10T08:29:38.250Z,6.05
2023-03-10T08:30:45.888Z,6.11
2023-03-10T08:31:39.948Z,6.10
2023-03-10T08:32:38.648Z,6.16
2023-03-10T08:33:38.758Z,6.32
2023-03-10T08:34:38.218Z,6.28
2023-03-10T08:35:38.411Z,6.25
2023-03-10T08:36:38.182Z,6.21
2023-03-10T08:37:38.687Z,6.38
2023-03-10T08:38:38.541Z,6.35
2023-03-10T08:39:38.199Z,6.45
2023-03-10T08:40:38.130Z,6.53
2023-03-10T08:41:38.128Z,6.68
2023-03-10T08:42:38.108Z,6.72
2023-03-10T08:43:38.106Z,6.86
2023-03-10T08:44:38.088Z,6.91
2023-03-10T08:45:38.112Z,6.83
2023-03-10T08:46:38.120Z,6.91
2023-03-10T08:47:38.053Z,6.96
2023-03-10T08:48:38.062Z,6.79
2023-03-10T08:49:38.031Z,7.00
2023-03-10T08:50:38.039Z,6.94
2023-03-10T08:51:38.037Z,7.29
2023-03-10T08:52:38.002Z,7.42
2023-03-10T08:53:37.994Z,7.48
2023-03-10T08:54:37.979Z,7.55
2023-03-10T08:55:37.972Z,7.67
2023-03-10T08:56:37.968Z,7.50
2023-03-10T08:57:37.959Z,7.47
2023-03-10T08:58:37.945Z,7.23
2023-03-10T08:59:37.939Z,7.09
2023-03-10T09:00:37.918Z,7.19
2023-03-10T09:01:38.063Z,7.29
2023-03-10T09:02:37.974Z,7.16
2023-03-10T09:03:37.990Z,7.11
2023-03-10T09:04:37.869Z,7.16
2023-03-10T09:05:37.867Z,7.21
2023-03-10T09:06:37.848Z,7.16
2023-03-10T09:07:37.871Z,7.29
2023-03-10T09:08:37.827Z,7.26
2023-03-10T09:09:37.851Z,7.18
2023-03-10T09:10:37.820Z,7.21
2023-03-10T09:11:39.130Z,7.33
2023-03-10T09:12:39.321Z,7.21
2023-03-10T09:13:37.769Z,7.16
2023-03-10T09:14:37.768Z,7.04
2023-03-10T09:15:37.760Z,6.89
2023-03-10T09:16:37.856Z,6.87
2023-03-10T09:17:40.617Z,6.69
2023-03-10T09:18:37.715Z,6.69
2023-03-10T09:19:37.702Z,6.69
2023-03-10T09:20:37.718Z,6.78
2023-03-10T09:21:37.714Z,6.75
2023-03-10T09:22:37.682Z,6.76
2023-03-10T09:23:37.679Z,6.90
2023-03-10T09:24:37.655Z,6.96
2023-03-10T09:25:37.638Z,6.96
2023-03-10T09:26:37.630Z,7.04
2023-03-10T09:27:37.635Z,7.18
2023-03-10T09:28:37.614Z,7.14
2023-03-10T09:29:43.181Z,7.07
2023-03-10T09:30:38.580Z,7.14
2023-03-10T09:31:37.632Z,7.19
2023-03-10T09:32:37.650Z,7.04
2023-03-10T09:33:37.582Z,7.14
2023-03-10T09:34:37.543Z,7.23
2023-03-10T09:35:41.711Z,7.00
2023-03-10T09:36:38.600Z,7.00
2023-03-10T09:37:37.506Z,6.73
2023-03-10T09:38:37.500Z,6.71
2023-03-10T09:39:37.525Z,6.71
2023-03-10T09:40:37.479Z,6.72
2023-03-10T09:41:38.455Z,6.86
2023-03-10T09:42:38.707Z,6.65
2023-03-10T09:43:37.452Z,6.69
2023-03-10T09:44:37.429Z,6.87
2023-03-10T09:45:37.501Z,6.68
2023-03-10T09:46:37.418Z,6.83
2023-03-10T09:47:37.398Z,6.89
2023-03-10T09:48:37.384Z,6.86
2023-03-10T09:49:37.388Z,6.71
2023-03-10T09:50:37.367Z,6.83
2023-03-10T09:51:37.364Z,6.89
2023-03-10T09:52:37.354Z,6.94
2023-03-10T09:53:37.343Z,6.75
2023-03-10T09:54:37.337Z,6.94
2023-03-10T09:55:42.386Z,6.86
2023-03-10T09:56:38.298Z,6.86
2023-03-10T09:57:37.324Z,6.90
2023-03-10T09:58:37.275Z,6.86
2023-03-10T09:59:37.273Z,7.00
2023-03-10T10:00:37.265Z,6.86
2023-03-10T10:01:37.280Z,6.76
2023-03-10T10:02:37.242Z,6.83
2023-03-10T10:03:50.105Z,6.71
2023-03-10T10:04:38.333Z,6.78
2023-03-10T10:05:37.207Z,6.61
2023-03-10T10:06:37.186Z,6.65
2023-03-10T10:07:37.179Z,6.64
2023-03-10T10:08:37.189Z,6.54
2023-03-10T10:09:37.157Z,6.55
2023-03-10T10:10:37.165Z,6.60
2023-03-10T10:11:37.153Z,6.55
2023-03-10T10:12:37.120Z,6.60
2023-03-10T10:13:37.109Z,6.61
2023-03-10T10:14:40.358Z,6.61
2023-03-10T10:15:38.093Z,6.72
2023-03-10T10:16:37.147Z,6.68
2023-03-10T10:17:41.744Z,6.69
2023-03-10T10:18:38.097Z,6.65
2023-03-10T10:19:37.446Z,6.53
2023-03-10T10:20:37.032Z,6.54
2023-03-10T10:21:42.558Z,6.48
2023-03-10T10:22:38.043Z,6.45
2023-03-10T10:23:36.999Z,6.60
2023-03-10T10:24:36.988Z,6.51
2023-03-10T10:25:36.990Z,6.60
2023-03-10T10:26:36.964Z,6.55
2023-03-10T10:27:36.978Z,6.64
2023-03-10T10:28:36.952Z,6.63
2023-03-10T10:29:36.936Z,6.69
2023-03-10T10:30:37.026Z,6.63
2023-03-10T10:31:36.925Z,6.60
2023-03-10T10:32:37.015Z,6.46
2023-03-10T10:33:36.892Z,6.40
2023-03-10T10:34:36.894Z,6.50
2023-03-10T10:35:36.928Z,6.48
2023-03-10T10:36:36.884Z,6.43
2023-03-10T10:37:39.578Z,6.45
2023-03-10T10:38:36.830Z,6.36
2023-03-10T10:39:36.823Z,6.43
2023-03-10T10:40:36.839Z,6.33
2023-03-10T10:41:36.800Z,6.42
2023-03-10T10:42:36.800Z,6.35
2023-03-10T10:43:36.800Z,6.19
2023-03-10T10:44:36.806Z,6.39
2023-03-10T10:45:36.763Z,6.30
2023-03-10T10:46:36.859Z,6.36
2023-03-10T10:47:36.746Z,6.27
2023-03-10T10:48:36.725Z,6.33
2023-03-10T10:49:36.722Z,6.43
2023-03-10T10:50:36.712Z,6.55
2023-03-10T10:51:36.693Z,6.64
2023-03-10T10:52:36.721Z,6.86
2023-03-10T10:53:36.673Z,6.83
2023-03-10T10:54:36.657Z,6.83
2023-03-10T10:55:36.661Z,7.47
2023-03-10T10:56:36.643Z,8.04
2023-03-10T10:57:36.629Z,8.22
2023-03-10T10:58:36.656Z,8.34
2023-03-10T10:59:36.633Z,8.65
2023-03-10T11:00:36.610Z,8.28
2023-03-10T11:01:36.647Z,8.52
2023-03-10T11:02:36.620Z,8.34
2023-03-10T11:03:36.561Z,7.69
2023-03-10T11:04:36.571Z,7.58
2023-03-10T11:05:36.540Z,7.58
2023-03-10T11:06:36.538Z,7.48
2023-03-10T11:07:36.519Z,7.52
2023-03-10T11:08:36.533Z,7.45
2023-03-10T11:09:36.505Z,7.69
2023-03-10T11:10:36.534Z,8.02
2023-03-10T11:11:36.489Z,8.67
2023-03-10T11:12:36.466Z,8.52
2023-03-10T11:13:36.457Z,8.36
2023-03-10T11:14:36.458Z,8.46
2023-03-10T11:15:36.501Z,8.52
2023-03-10T11:16:36.457Z,9.04
2023-03-10T11:17:36.414Z,9.15
2023-03-10T11:18:36.396Z,8.68
2023-03-10T11:19:36.398Z,9.00
2023-03-10T11:20:36.376Z,9.23
2023-03-10T11:21:36.370Z,8.98
2023-03-10T11:22:36.370Z,8.52
2023-03-10T11:23:36.357Z,8.37
2023-03-10T11:24:36.337Z,8.70
2023-03-10T11:25:36.338Z,8.54
2023-03-10T11:26:36.307Z,8.65
2023-03-10T11:27:36.304Z,8.83
2023-03-10T11:28:36.309Z,8.70
2023-03-10T11:29:36.401Z,8.98
2023-03-10T11:30:36.274Z,9.06
2023-03-10T11:31:36.383Z,8.71
2023-03-10T11:32:36.341Z,8.64
2023-03-10T11:33:36.240Z,9.32
2023-03-10T11:34:36.249Z,9.75
2023-03-10T11:35:36.282Z,9.91
2023-03-10T11:36:43.290Z,9.65
2023-03-10T11:37:37.186Z,9.32
2023-03-10T11:38:36.185Z,9.20
2023-03-10T11:39:36.164Z,9.03
2023-03-10T11:40:36.185Z,8.83
2023-03-10T11:41:36.154Z,8.83
2023-03-10T11:42:36.140Z,9.71
2023-03-10T11:43:36.122Z,9.24
2023-03-10T11:44:36.113Z,8.79
2023-03-10T11:45:36.105Z,8.63
2023-03-10T11:46:36.135Z,9.20
2023-03-10T11:47:36.114Z,9.49
2023-03-10T11:48:36.074Z,9.58
2023-03-10T11:49:36.056Z,9.91
2023-03-10T11:50:36.051Z,9.83
2023-03-10T11:51:36.047Z,9.83
2023-03-10T11:52:36.050Z,10.07
2023-03-10T11:53:36.023Z,10.11
2023-03-10T11:54:36.003Z,10.04
2023-03-10T11:55:35.993Z,10.31
2023-03-10T11:56:35.984Z,10.14
2023-03-10T11:57:35.983Z,10.43
2023-03-10T11:58:35.993Z,10.44
2023-03-10T11:59:36.942Z,10.47
2023-03-10T12:00:35.943Z,10.55
2023-03-10T12:01:35.922Z,10.58
2023-03-10T12:02:35.913Z,10.46
2023-03-10T12:03:36.004Z,10.22
2023-03-10T12:04:35.918Z,9.65
2023-03-10T12:05:35.973Z,9.83
2023-03-10T12:06:35.874Z,9.53
2023-03-10T12:07:35.856Z,9.55
2023-03-10T12:08:35.864Z,9.26
2023-03-10T12:09:35.832Z,9.10
2023-03-10T12:10:35.872Z,9.15
2023-03-10T12:11:35.830Z,9.19
2023-03-10T12:12:35.801Z,9.32
2023-03-10T12:13:35.790Z,9.04
2023-03-10T12:14:35.788Z,8.65
2023-03-10T12:15:35.766Z,8.58
2023-03-10T12:16:35.874Z,8.78
2023-03-10T12:17:35.744Z,8.89
2023-03-10T12:18:35.738Z,9.00
2023-03-10T12:19:35.740Z,8.98
2023-03-10T12:20:35.717Z,9.03
2023-03-10T12:21:35.698Z,9.12
2023-03-10T12:22:35.720Z,9.03
2023-03-10T12:23:35.684Z,9.04
2023-03-10T12:24:35.669Z,8.82
2023-03-10T12:25:35.654Z,9.00
2023-03-10T12:26:35.654Z,8.94
2023-03-10T12:27:35.632Z,8.70
2023-03-10T12:28:35.656Z,8.47
2023-03-10T12:29:35.643Z,8.64
2023-03-10T12:30:35.602Z,8.73
2023-03-10T12:31:35.700Z,9.03
2023-03-10T12:32:35.628Z,8.89
2023-03-10T12:33:35.565Z,8.91
2023-03-10T12:34:35.592Z,8.93
2023-03-10T12:35:35.566Z,8.91
2023-03-10T12:36:35.547Z,8.71
2023-03-10T12:37:35.531Z,8.88
2023-03-10T12:38:35.524Z,8.91
2023-03-10T12:39:35.495Z,8.70
2023-03-10T12:40:35.514Z,8.68
2023-03-10T12:41:35.479Z,8.67
2023-03-10T12:42:35.469Z,8.65
2023-03-10T12:43:35.462Z,8.49
2023-03-10T12:44:35.462Z,8.63
2023-03-10T12:45:35.429Z,8.61
2023-03-10T12:46:35.456Z,8.70
2023-03-10T12:47:35.417Z,8.67
2023-03-10T12:48:35.405Z,8.67
2023-03-10T12:49:35.401Z,8.71
2023-03-10T12:50:35.379Z,8.40
2023-03-10T12:51:35.388Z,8.49
2023-03-10T12:52:35.373Z,8.39
2023-03-10T12:53:35.357Z,8.31
2023-03-10T12:54:35.337Z,8.20
2023-03-10T12:55:35.360Z,8.09
2023-03-10T12:56:35.312Z,7.85
2023-03-10T12:57:35.300Z,7.76
2023-03-10T12:58:35.306Z,7.67
2023-03-10T12:59:35.285Z,7.70
2023-03-10T13:00:35.324Z,7.62
2023-03-10T13:01:36.641Z,7.86
2023-03-10T13:02:35.248Z,7.67
2023-03-10T13:03:35.319Z,7.63
2023-03-10T13:04:35.249Z,7.47
2023-03-10T13:05:35.251Z,7.41
2023-03-10T13:06:35.206Z,7.30
2023-03-10T13:07:35.241Z,7.32
2023-03-10T13:08:35.198Z,7.27
2023-03-10T13:09:35.174Z,7.29
2023-03-10T13:10:35.188Z,7.33
2023-03-10T13:11:35.151Z,7.30
2023-03-10T13:12:35.141Z,7.15
2023-03-10T13:13:35.134Z,7.30
2023-03-10T13:14:35.123Z,7.15
2023-03-10T13:15:35.108Z,7.42
2023-03-10T13:16:35.241Z,7.47
2023-03-10T13:17:35.104Z,7.44
2023-03-10T13:18:35.090Z,7.48